Time;durP1;ratioP1;P1;durP2;ratioP2;P2;SDS_P1;SDS_P2;PMS_P1;PMS_P2;Temp;Humidity;BMP_temperature;BMP_pressure;BME280_temperature;BME280_humidity;BME280_pressure;Samples;Min_cycle;Max_cycle;Signal;HPM_P1;HPM_P2
2023/06/13 00:00:04;;;;;;;5.20;4.70;;;;;;;;;;4999016;28;20757;-46
2023/06/13 00:02:31;;;;;;;6.97;4.53;;;;;;;;;;4998736;28;20458;-46
2023/06/13 00:04:57;;;;;;;5.23;4.80;;;;;;;;;;5001228;28;20530;-51
2023/06/13 00:07:23;;;;;;;7.00;4.50;;;;;;;;;;5000644;28;20413;-52
2023/06/13 00:09:49;;;;;;;8.27;5.07;;;;;;;;;;5001650;28;20418;-51
2023/06/13 00:12:19;;;;;;;10.40;4.93;;;;;;;;;;5002971;28;20444;-51
2023/06/13 00:14:46;;;;;;;5.33;4.83;;;;;;;;;;5000210;28;20453;-50
2023/06/13 00:17:12;;;;;;;7.20;4.60;;;;;;;;;;4998535;28;20537;-48
2023/06/13 00:19:38;;;;;;;5.87;4.80;;;;;;;;;;4995790;28;21015;-51
2023/06/13 00:22:08;;;;;;;4.70;4.20;;;;;;;;;;5003804;28;20467;-51
2023/06/13 00:24:34;;;;;;;5.07;4.50;;;;;;;;;;5001143;28;20451;-50
2023/06/13 00:27:00;;;;;;;6.13;5.53;;;;;;;;;;5003177;28;20779;-51
2023/06/13 00:29:25;;;;;;;5.50;5.00;;;;;;;;;;5000653;28;20421;-51
2023/06/13 00:31:51;;;;;;;5.27;4.73;;;;;;;;;;5002431;28;20524;-51
2023/06/13 00:34:17;;;;;;;5.57;4.43;;;;;;;;;;5003448;28;20464;-49
2023/06/13 00:36:44;;;;;;;5.73;4.37;;;;;;;;;;5002890;28;20413;-49
2023/06/13 00:39:10;;;;;;;5.17;4.67;;;;;;;;;;5001244;28;20413;-48
2023/06/13 00:41:36;;;;;;;5.80;5.23;;;;;;;;;;4994421;28;20430;-50
2023/06/13 00:44:02;;;;;;;5.60;5.20;;;;;;;;;;4996551;28;20468;-49
2023/06/13 00:46:32;;;;;;;5.30;4.77;;;;;;;;;;5000605;28;20474;-50
2023/06/13 00:48:58;;;;;;;5.50;5.00;;;;;;;;;;5012157;28;20860;-49
2023/06/13 00:51:27;;;;;;;5.37;4.87;;;;;;;;;;5003349;28;20417;-50
2023/06/13 00:53:54;;;;;;;8.33;3.87;;;;;;;;;;5008662;28;20975;-51
2023/06/13 00:56:20;;;;;;;5.00;4.50;;;;;;;;;;5004617;28;20412;-51
2023/06/13 00:58:46;;;;;;;5.90;4.83;;;;;;;;;;4999747;28;20433;-50
2023/06/13 01:01:13;;;;;;;5.13;4.30;;;;;;;;;;5011570;28;20854;-50
2023/06/13 01:03:44;;;;;;;10.77;4.97;;;;;;;;;;5003864;28;20530;-50
2023/06/13 01:06:10;;;;;;;5.17;4.67;;;;;;;;;;5003443;28;20916;-51
2023/06/13 01:08:37;;;;;;;4.90;4.50;;;;;;;;;;5003599;28;20456;-49
2023/06/13 01:11:07;;;;;;;5.83;4.50;;;;;;;;;;5007057;28;20905;-50
2023/06/13 01:13:36;;;;;;;5.13;4.60;;;;;;;;;;4998409;28;20446;-50
2023/06/13 01:16:08;;;;;;;5.87;5.37;;;;;;;;;;5003661;28;20535;-49
2023/06/13 01:18:35;;;;;;;5.17;4.67;;;;;;;;;;5006962;28;20475;-50
2023/06/13 01:21:02;;;;;;;5.77;4.63;;;;;;;;;;5003509;28;20507;-49
2023/06/13 01:23:37;;;;;;;5.33;4.83;;;;;;;;;;5003501;28;20522;-51
2023/06/13 01:26:22;;;;;;;8.60;5.47;;;;;;;;;;5005215;28;20399;-50
2023/06/13 01:28:53;;;;;;;7.27;5.23;;;;;;;;;;5003464;28;20413;-50
2023/06/13 01:31:20;;;;;;;5.17;4.70;;;;;;;;;;5003453;28;20381;-51
2023/06/13 01:33:47;;;;;;;7.77;7.03;;;;;;;;;;5002922;28;20498;-49
2023/06/13 01:36:13;;;;;;;6.40;4.50;;;;;;;;;;5007067;28;20874;-50
2023/06/13 01:38:39;;;;;;;5.13;4.73;;;;;;;;;;5006682;28;20420;-51
2023/06/13 01:41:05;;;;;;;6.10;5.50;;;;;;;;;;5000261;28;20827;-51
2023/06/13 01:43:31;;;;;;;5.43;5.03;;;;;;;;;;4999579;28;20481;-51
2023/06/13 01:46:01;;;;;;;5.17;4.60;;;;;;;;;;5002491;28;20433;-50
2023/06/13 01:48:27;;;;;;;5.17;4.67;;;;;;;;;;5004430;28;20435;-48
2023/06/13 01:50:58;;;;;;;7.43;5.27;;;;;;;;;;5004609;28;20416;-49
2023/06/13 01:53:27;;;;;;;11.53;5.30;;;;;;;;;;5003805;28;20391;-51
2023/06/13 01:56:02;;;;;;;6.67;5.30;;;;;;;;;;5004759;28;20420;-49
2023/06/13 01:58:46;;;;;;;7.00;5.37;;;;;;;;;;5001203;28;20485;-52
2023/06/13 02:01:13;;;;;;;4.97;4.57;;;;;;;;;;4997132;28;20403;-51
2023/06/13 02:03:40;;;;;;;5.43;4.93;;;;;;;;;;5007830;28;20558;-48
2023/06/13 02:06:06;;;;;;;6.07;5.57;;;;;;;;;;4997574;28;20468;-49
2023/06/13 02:08:32;;;;;;;7.00;5.60;;;;;;;;;;5002687;28;20875;-50
2023/06/13 02:10:58;;;;;;;7.50;5.70;;;;;;;;;;5002813;28;20407;-51
2023/06/13 02:13:24;;;;;;;7.33;6.10;;;;;;;;;;5002613;28;20385;-50
2023/06/13 02:15:50;;;;;;;6.00;5.40;;;;;;;;;;5003944;28;20759;-50
2023/06/13 02:18:17;;;;;;;6.10;5.60;;;;;;;;;;5006252;28;20466;-50
2023/06/13 02:20:43;;;;;;;5.87;5.37;;;;;;;;;;5005792;28;20391;-48
2023/06/13 02:23:10;;;;;;;7.67;5.60;;;;;;;;;;5000058;28;20457;-49
2023/06/13 02:25:36;;;;;;;5.80;5.10;;;;;;;;;;4991361;28;20412;-50
2023/06/13 02:28:02;;;;;;;7.20;5.13;;;;;;;;;;5005251;28;20401;-50
2023/06/13 02:30:28;;;;;;;6.90;6.20;;;;;;;;;;5004256;28;20409;-51
2023/06/13 02:32:54;;;;;;;5.67;5.17;;;;;;;;;;5004384;28;20385;-49
2023/06/13 02:35:23;;;;;;;12.87;5.90;;;;;;;;;;5003680;28;20405;-49
2023/06/13 02:37:53;;;;;;;5.60;4.80;;;;;;;;;;5003077;28;20760;-50
2023/06/13 02:40:19;;;;;;;8.17;5.70;;;;;;;;;;4999877;28;20454;-51
2023/06/13 02:42:52;;;;;;;8.53;5.60;;;;;;;;;;5004377;28;20463;-50
2023/06/13 02:45:18;;;;;;;5.80;5.20;;;;;;;;;;5004590;28;20846;-50
2023/06/13 02:47:44;;;;;;;8.63;5.77;;;;;;;;;;5000926;28;20398;-51
2023/06/13 02:50:10;;;;;;;5.43;4.63;;;;;;;;;;5002915;28;20434;-49
2023/06/13 02:52:37;;;;;;;5.97;5.37;;;;;;;;;;5001964;28;20416;-51
2023/06/13 02:55:03;;;;;;;7.50;5.37;;;;;;;;;;5002227;28;20449;-49
2023/06/13 02:57:29;;;;;;;5.33;4.83;;;;;;;;;;5000649;28;20459;-49
2023/06/13 02:59:56;;;;;;;5.83;5.20;;;;;;;;;;5006882;28;20461;-50
2023/06/13 03:02:25;;;;;;;6.40;5.27;;;;;;;;;;5003228;28;20461;-49
2023/06/13 03:04:52;;;;;;;6.47;5.87;;;;;;;;;;4998913;28;20441;-50
2023/06/13 03:07:18;;;;;;;7.30;5.20;;;;;;;;;;4999147;28;21020;-50
2023/06/13 03:09:44;;;;;;;6.47;5.23;;;;;;;;;;5006312;28;20987;-51
2023/06/13 03:12:13;;;;;;;7.40;5.20;;;;;;;;;;5005017;28;20387;-51
2023/06/13 03:14:39;;;;;;;5.60;5.10;;;;;;;;;;5002074;28;20447;-49
2023/06/13 03:17:06;;;;;;;5.70;5.20;;;;;;;;;;5000094;28;20392;-50
2023/06/13 03:19:32;;;;;;;6.87;5.30;;;;;;;;;;5002342;28;20395;-49
2023/06/13 03:21:58;;;;;;;6.23;4.93;;;;;;;;;;4997007;28;20520;-50
2023/06/13 03:24:24;;;;;;;7.33;5.00;;;;;;;;;;5004532;28;20435;-50
2023/06/13 03:26:50;;;;;;;7.00;5.50;;;;;;;;;;5001848;28;20418;-50
2023/06/13 03:29:16;;;;;;;10.20;5.53;;;;;;;;;;5003463;28;20388;-48
2023/06/13 03:31:42;;;;;;;5.33;4.93;;;;;;;;;;5001563;28;20471;-48
2023/06/13 03:34:08;;;;;;;9.20;6.17;;;;;;;;;;5006590;28;20437;-51
2023/06/13 03:36:34;;;;;;;7.00;5.30;;;;;;;;;;4997272;28;20400;-50
2023/06/13 03:39:00;;;;;;;7.53;5.40;;;;;;;;;;5002569;28;20585;-50
2023/06/13 03:41:26;;;;;;;5.80;5.30;;;;;;;;;;5004549;28;20402;-49
2023/06/13 03:43:52;;;;;;;7.80;5.10;;;;;;;;;;5000021;28;21004;-50
2023/06/13 03:46:18;;;;;;;10.70;5.77;;;;;;;;;;5001276;28;20428;-50
2023/06/13 03:48:44;;;;;;;6.50;5.90;;;;;;;;;;5001454;28;20399;-51
2023/06/13 03:51:10;;;;;;;6.67;5.97;;;;;;;;;;4993593;28;20485;-51
2023/06/13 03:53:38;;;;;;;7.80;5.50;;;;;;;;;;5000757;28;20453;-51
2023/06/13 03:56:06;;;;;;;5.67;5.17;;;;;;;;;;4995243;28;20917;-51
2023/06/13 03:58:32;;;;;;;10.27;6.47;;;;;;;;;;5003886;28;20443;-50
2023/06/13 04:00:59;;;;;;;7.60;6.20;;;;;;;;;;4998038;28;20416;-51
2023/06/13 04:03:29;;;;;;;7.70;6.17;;;;;;;;;;4992984;28;20463;-51
2023/06/13 04:05:55;;;;;;;9.70;5.80;;;;;;;;;;5001534;28;20448;-51
2023/06/13 04:08:21;;;;;;;6.37;5.00;;;;;;;;;;5002122;28;20427;-47
2023/06/13 04:10:47;;;;;;;6.00;5.50;;;;;;;;;;5001447;28;20931;-49
2023/06/13 04:13:13;;;;;;;6.90;6.30;;;;;;;;;;5003238;28;20392;-50
2023/06/13 04:15:39;;;;;;;10.30;6.30;;;;;;;;;;5002731;28;20423;-48
2023/06/13 04:18:05;;;;;;;7.00;5.67;;;;;;;;;;4996656;28;20475;-48
2023/06/13 04:20:31;;;;;;;7.13;6.43;;;;;;;;;;5002667;28;20502;-48
2023/06/13 04:22:58;;;;;;;6.20;5.53;;;;;;;;;;5001209;28;20473;-49
2023/06/13 04:25:24;;;;;;;8.70;5.50;;;;;;;;;;5001768;28;20524;-49
2023/06/13 04:27:53;;;;;;;6.10;5.50;;;;;;;;;;5001968;28;20495;-50
2023/06/13 04:30:18;;;;;;;11.87;6.20;;;;;;;;;;5000693;28;20382;-51
2023/06/13 04:32:45;;;;;;;6.80;5.87;;;;;;;;;;5001084;28;20405;-48
2023/06/13 04:35:16;;;;;;;7.27;5.60;;;;;;;;;;5000134;28;20435;-51
2023/06/13 04:37:43;;;;;;;8.30;6.80;;;;;;;;;;4996303;28;20407;-51
2023/06/13 04:40:10;;;;;;;9.73;6.60;;;;;;;;;;4996159;28;20883;-49
2023/06/13 04:42:37;;;;;;;5.97;5.37;;;;;;;;;;5004162;28;20437;-50
2023/06/13 04:45:04;;;;;;;9.37;6.30;;;;;;;;;;5001075;28;20774;-50
2023/06/13 04:47:31;;;;;;;7.93;5.73;;;;;;;;;;5000315;28;20389;-49
2023/06/13 04:50:00;;;;;;;7.20;5.70;;;;;;;;;;4999999;28;20388;-51
2023/06/13 04:52:26;;;;;;;6.53;5.93;;;;;;;;;;5005450;28;20402;-48
2023/06/13 04:54:54;;;;;;;7.37;6.17;;;;;;;;;;5007635;28;20896;-48
2023/06/13 04:57:20;;;;;;;6.43;5.60;;;;;;;;;;5003565;28;20400;-49
2023/06/13 04:59:46;;;;;;;6.40;5.80;;;;;;;;;;4995143;28;20384;-50
2023/06/13 05:02:12;;;;;;;10.13;6.27;;;;;;;;;;5003390;28;20443;-49
2023/06/13 05:04:39;;;;;;;7.70;5.90;;;;;;;;;;5001227;28;20400;-51
2023/06/13 05:07:06;;;;;;;10.33;6.47;;;;;;;;;;5000297;28;20386;-49
2023/06/13 05:09:32;;;;;;;6.90;5.87;;;;;;;;;;4993660;28;20430;-50
2023/06/13 05:11:58;;;;;;;5.77;5.27;;;;;;;;;;5002492;28;20902;-50
2023/06/13 05:14:24;;;;;;;10.57;5.90;;;;;;;;;;4993182;28;20454;-50
2023/06/13 05:16:53;;;;;;;6.77;5.60;;;;;;;;;;4999991;28;20428;-51
2023/06/13 05:19:19;;;;;;;7.17;5.27;;;;;;;;;;5003148;28;20386;-50
2023/06/13 05:21:46;;;;;;;7.70;5.57;;;;;;;;;;4999374;28;20411;-51
2023/06/13 05:24:13;;;;;;;6.53;5.13;;;;;;;;;;5006747;28;20960;-50
2023/06/13 05:26:39;;;;;;;5.90;5.30;;;;;;;;;;4991778;28;20383;-50
2023/06/13 05:29:05;;;;;;;6.50;5.40;;;;;;;;;;5002325;28;20421;-48
2023/06/13 05:31:33;;;;;;;5.37;4.87;;;;;;;;;;5002706;28;20411;-50
2023/06/13 05:34:00;;;;;;;10.87;5.90;;;;;;;;;;5006229;28;20401;-48
2023/06/13 05:36:26;;;;;;;5.63;5.13;;;;;;;;;;5006750;28;20513;-51
2023/06/13 05:38:57;;;;;;;6.77;5.10;;;;;;;;;;5006832;28;20511;-49
2023/06/13 05:41:23;;;;;;;10.23;5.97;;;;;;;;;;5001112;28;21098;-50
2023/06/13 05:43:52;;;;;;;6.50;5.10;;;;;;;;;;5004320;28;20469;-50
2023/06/13 05:46:18;;;;;;;5.53;5.03;;;;;;;;;;5006508;28;20386;-51
2023/06/13 05:48:44;;;;;;;6.60;5.60;;;;;;;;;;4996356;28;20412;-51
2023/06/13 05:51:10;;;;;;;7.03;5.37;;;;;;;;;;5006532;28;20462;-50
2023/06/13 05:53:36;;;;;;;10.27;5.47;;;;;;;;;;4998085;28;20498;-48
2023/06/13 05:56:02;;;;;;;5.50;4.70;;;;;;;;;;5007149;28;20430;-50
2023/06/13 05:58:28;;;;;;;5.93;5.40;;;;;;;;;;5014045;28;20499;-50
2023/06/13 06:00:57;;;;;;;6.40;5.70;;;;;;;;;;5005973;28;20459;-48
2023/06/13 06:03:23;;;;;;;5.70;5.13;;;;;;;;;;5008160;28;20513;-49
2023/06/13 06:05:49;;;;;;;8.50;5.50;;;;;;;;;;5003551;28;20417;-50
2023/06/13 06:08:15;;;;;;;8.07;5.53;;;;;;;;;;5003676;28;20383;-51
2023/06/13 06:10:41;;;;;;;6.43;5.47;;;;;;;;;;4992146;28;20828;-51
2023/06/13 06:13:07;;;;;;;8.80;5.00;;;;;;;;;;5002377;28;20445;-51
2023/06/13 06:15:34;;;;;;;6.77;6.17;;;;;;;;;;5001066;28;20953;-51
2023/06/13 06:18:00;;;;;;;5.57;4.97;;;;;;;;;;4998298;28;20948;-51
2023/06/13 06:20:26;;;;;;;12.67;5.50;;;;;;;;;;5005291;28;20445;-51
2023/06/13 06:22:52;;;;;;;7.37;5.83;;;;;;;;;;5003415;28;20956;-50
2023/06/13 06:25:19;;;;;;;6.20;5.13;;;;;;;;;;5000189;28;20445;-49
2023/06/13 06:27:48;;;;;;;6.10;5.30;;;;;;;;;;5005539;28;20502;-49
2023/06/13 06:30:14;;;;;;;8.27;5.63;;;;;;;;;;4990122;28;20512;-49
2023/06/13 06:32:40;;;;;;;5.17;4.60;;;;;;;;;;5002085;28;20919;-49
2023/06/13 06:35:06;;;;;;;6.90;5.20;;;;;;;;;;5000515;28;20430;-49
2023/06/13 06:37:32;;;;;;;5.33;4.83;;;;;;;;;;4999629;28;20410;-49
2023/06/13 06:39:58;;;;;;;6.60;4.60;;;;;;;;;;5003418;28;20778;-51
2023/06/13 06:42:25;;;;;;;5.17;4.77;;;;;;;;;;5001652;28;20463;-49
2023/06/13 06:44:51;;;;;;;5.10;4.60;;;;;;;;;;5001870;28;20473;-50
2023/06/13 06:47:17;;;;;;;5.73;5.03;;;;;;;;;;5004825;28;20497;-48
2023/06/13 06:49:43;;;;;;;5.77;5.27;;;;;;;;;;5004770;28;20418;-49
2023/06/13 06:52:09;;;;;;;6.17;4.53;;;;;;;;;;4999241;28;20425;-49
2023/06/13 06:54:35;;;;;;;5.07;4.57;;;;;;;;;;5005318;28;20437;-49
2023/06/13 06:57:02;;;;;;;5.70;5.30;;;;;;;;;;5003428;28;20407;-49
2023/06/13 06:59:29;;;;;;;7.37;5.00;;;;;;;;;;5003089;28;20473;-50
2023/06/13 07:01:55;;;;;;;8.63;4.90;;;;;;;;;;5004003;28;20415;-50
2023/06/13 07:04:22;;;;;;;5.10;4.70;;;;;;;;;;5002162;28;20837;-49
2023/06/13 07:06:48;;;;;;;4.90;4.50;;;;;;;;;;5002941;28;20450;-50
2023/06/13 07:09:14;;;;;;;6.47;5.20;;;;;;;;;;5001402;28;20507;-49
2023/06/13 07:11:40;;;;;;;5.73;5.07;;;;;;;;;;4998422;28;20769;-50
2023/06/13 07:14:06;;;;;;;7.60;4.60;;;;;;;;;;5004766;28;20513;-49
2023/06/13 07:16:32;;;;;;;5.80;5.30;;;;;;;;;;5000588;28;20431;-50
2023/06/13 07:18:58;;;;;;;5.47;4.90;;;;;;;;;;5002733;28;20416;-51
2023/06/13 07:21:25;;;;;;;6.87;5.70;;;;;;;;;;5001232;28;20903;-49
2023/06/13 07:23:51;;;;;;;6.17;5.57;;;;;;;;;;5002864;28;20557;-50
2023/06/13 07:26:17;;;;;;;5.83;5.20;;;;;;;;;;5005730;28;20415;-49
2023/06/13 07:28:43;;;;;;;5.23;4.60;;;;;;;;;;5005908;28;20407;-50
2023/06/13 07:31:09;;;;;;;4.47;4.13;;;;;;;;;;5000197;28;20422;-50
2023/06/13 07:33:35;;;;;;;7.53;4.63;;;;;;;;;;5003689;28;20452;-49
2023/06/13 07:36:02;;;;;;;5.47;4.97;;;;;;;;;;5004559;28;20910;-50
2023/06/13 07:38:28;;;;;;;7.57;5.10;;;;;;;;;;5004193;28;20413;-50
2023/06/13 07:40:54;;;;;;;5.77;5.27;;;;;;;;;;5000290;28;20434;-50
2023/06/13 07:43:20;;;;;;;5.27;4.77;;;;;;;;;;4998041;28;20455;-50
2023/06/13 07:45:46;;;;;;;5.83;4.53;;;;;;;;;;5003293;28;20425;-51
2023/06/13 07:48:12;;;;;;;5.87;4.70;;;;;;;;;;4998764;28;20424;-50
2023/06/13 07:50:41;;;;;;;7.30;4.97;;;;;;;;;;5004185;28;20433;-50
2023/06/13 07:53:07;;;;;;;5.90;5.33;;;;;;;;;;5003072;28;20442;-49
2023/06/13 07:55:33;;;;;;;4.97;4.67;;;;;;;;;;5001642;28;20911;-49
2023/06/13 07:57:59;;;;;;;6.13;5.00;;;;;;;;;;5003765;28;20964;-49
2023/06/13 08:00:26;;;;;;;7.10;4.13;;;;;;;;;;5001280;28;20418;-49
2023/06/13 08:02:52;;;;;;;5.30;4.70;;;;;;;;;;5002143;28;20488;-50
2023/06/13 08:05:18;;;;;;;7.37;5.17;;;;;;;;;;5000486;28;20437;-50
2023/06/13 08:07:44;;;;;;;5.13;4.63;;;;;;;;;;5007264;28;20420;-50
2023/06/13 08:10:10;;;;;;;4.77;4.37;;;;;;;;;;4998029;28;20434;-50
2023/06/13 08:12:37;;;;;;;5.30;4.80;;;;;;;;;;4998664;28;20550;-50
2023/06/13 08:15:03;;;;;;;5.00;4.50;;;;;;;;;;5002172;28;20429;-49
2023/06/13 08:17:29;;;;;;;6.23;4.60;;;;;;;;;;5000431;28;20420;-49
2023/06/13 08:19:55;;;;;;;5.17;4.67;;;;;;;;;;5000332;28;20426;-49
2023/06/13 08:22:21;;;;;;;7.27;4.93;;;;;;;;;;5000431;28;20510;-51
2023/06/13 08:24:47;;;;;;;6.10;4.80;;;;;;;;;;5005050;28;20455;-50
2023/06/13 08:27:16;;;;;;;4.93;4.53;;;;;;;;;;5000205;28;20406;-49
2023/06/13 08:29:42;;;;;;;6.53;4.70;;;;;;;;;;4997078;28;20785;-49
2023/06/13 08:32:09;;;;;;;5.10;4.60;;;;;;;;;;5000018;28;20419;-50
2023/06/13 08:34:35;;;;;;;5.00;4.50;;;;;;;;;;5006847;28;20419;-48
2023/06/13 08:37:01;;;;;;;5.07;4.67;;;;;;;;;;5003504;28;20486;-48
2023/06/13 08:39:27;;;;;;;5.53;4.60;;;;;;;;;;5002066;28;20507;-49
2023/06/13 08:41:53;;;;;;;5.37;4.70;;;;;;;;;;4999372;28;20992;-48
2023/06/13 08:44:20;;;;;;;4.83;4.40;;;;;;;;;;4999265;28;20470;-49
2023/06/13 08:46:46;;;;;;;6.17;4.90;;;;;;;;;;4995607;28;20478;-48
2023/06/13 08:49:12;;;;;;;4.60;4.17;;;;;;;;;;5003358;28;20907;-49
2023/06/13 08:51:38;;;;;;;5.33;4.90;;;;;;;;;;4999801;28;20924;-49
2023/06/13 08:54:05;;;;;;;5.27;4.77;;;;;;;;;;4992627;28;20431;-48
2023/06/13 08:56:35;;;;;;;12.40;5.13;;;;;;;;;;4972775;28;20408;-49
2023/06/13 08:59:19;;;;;;;5.60;5.10;;;;;;;;;;4989869;28;20423;-49
2023/06/13 09:01:46;;;;;;;5.50;4.23;;;;;;;;;;4991999;28;20423;-50
2023/06/13 09:04:12;;;;;;;6.43;4.73;;;;;;;;;;4992042;28;20567;-49
2023/06/13 09:06:39;;;;;;;8.73;4.33;;;;;;;;;;4992072;28;20426;-49
2023/06/13 09:09:06;;;;;;;5.37;4.10;;;;;;;;;;4995535;28;20416;-51
2023/06/13 09:11:34;;;;;;;8.67;7.00;;;;;;;;;;4995340;28;20559;-49
2023/06/13 09:14:01;;;;;;;7.30;6.00;;;;;;;;;;5006315;28;20554;-49
2023/06/13 09:16:27;;;;;;;5.10;4.60;;;;;;;;;;5003887;28;20831;-50
2023/06/13 09:18:53;;;;;;;5.00;4.53;;;;;;;;;;5007275;28;20415;-50
2023/06/13 09:21:20;;;;;;;4.97;4.50;;;;;;;;;;5005897;28;20498;-49
2023/06/13 09:23:47;;;;;;;5.40;4.50;;;;;;;;;;5005843;28;20470;-50
2023/06/13 09:26:14;;;;;;;4.70;4.37;;;;;;;;;;5001598;28;20422;-52
2023/06/13 09:28:40;;;;;;;4.50;4.20;;;;;;;;;;4998981;28;20808;-50
2023/06/13 09:31:09;;;;;;;5.30;4.80;;;;;;;;;;5006616;28;20954;-51
2023/06/13 09:33:36;;;;;;;5.90;4.03;;;;;;;;;;5004217;28;21022;-50
2023/06/13 09:36:02;;;;;;;5.47;4.87;;;;;;;;;;5006266;28;20418;-51
2023/06/13 09:38:29;;;;;;;4.83;4.43;;;;;;;;;;5003460;28;20455;-49
2023/06/13 09:40:56;;;;;;;4.17;3.87;;;;;;;;;;5003305;28;20435;-50
2023/06/13 09:43:23;;;;;;;5.30;4.87;;;;;;;;;;5000334;28;20469;-50
2023/06/13 09:45:50;;;;;;;4.53;3.93;;;;;;;;;;5005209;28;20795;-49
2023/06/13 09:48:17;;;;;;;9.33;4.80;;;;;;;;;;5005143;28;20412;-50
2023/06/13 09:50:43;;;;;;;4.93;4.53;;;;;;;;;;5001663;28;20412;-50
2023/06/13 09:53:09;;;;;;;4.47;4.07;;;;;;;;;;5004156;28;20465;-48
2023/06/13 09:55:36;;;;;;;4.13;3.73;;;;;;;;;;5002925;28;20923;-50
2023/06/13 09:58:02;;;;;;;4.93;4.53;;;;;;;;;;5003378;28;20408;-49
2023/06/13 10:00:29;;;;;;;7.87;4.63;;;;;;;;;;5002931;28;20420;-49
2023/06/13 10:02:55;;;;;;;3.93;3.60;;;;;;;;;;5010221;28;20462;-49
2023/06/13 10:05:21;;;;;;;4.87;4.17;;;;;;;;;;5005909;28;20441;-49
2023/06/13 10:07:48;;;;;;;5.27;4.10;;;;;;;;;;4999873;28;20792;-50
2023/06/13 10:10:14;;;;;;;4.63;4.03;;;;;;;;;;4996305;28;20429;-50
2023/06/13 10:12:45;;;;;;;4.90;4.47;;;;;;;;;;4996570;28;20818;-50
2023/06/13 10:15:13;;;;;;;4.80;4.40;;;;;;;;;;5002258;28;20435;-49
2023/06/13 10:17:40;;;;;;;4.77;4.37;;;;;;;;;;5002348;28;20408;-51
2023/06/13 10:20:10;;;;;;;5.23;4.70;;;;;;;;;;4991655;28;20420;-50
2023/06/13 10:22:36;;;;;;;4.63;4.33;;;;;;;;;;4994276;28;20473;-48
2023/06/13 10:25:02;;;;;;;4.47;4.10;;;;;;;;;;4991804;28;20970;-48
2023/06/13 10:27:28;;;;;;;5.50;4.30;;;;;;;;;;4993320;28;20439;-48
2023/06/13 10:30:01;;;;;;;5.03;4.53;;;;;;;;;;4994048;28;20424;-50
2023/06/13 10:32:27;;;;;;;5.27;4.50;;;;;;;;;;4994200;28;21607;-49
2023/06/13 10:35:08;;;;;;;4.87;4.47;;;;;;;;;;4988622;28;20443;-49
2023/06/13 10:37:34;;;;;;;5.67;4.70;;;;;;;;;;4991404;28;20192;-49
2023/06/13 10:40:18;;;;;;;4.50;4.20;;;;;;;;;;4991097;28;20420;-49
2023/06/13 10:42:49;;;;;;;7.63;5.17;;;;;;;;;;4990042;28;20518;-50
2023/06/13 10:45:21;;;;;;;5.23;4.83;;;;;;;;;;4989892;28;20455;-49
2023/06/13 10:47:47;;;;;;;5.27;4.73;;;;;;;;;;4990284;28;20428;-48
2023/06/13 10:50:15;;;;;;;4.80;4.33;;;;;;;;;;4993426;28;20416;-48
2023/06/13 10:52:48;;;;;;;10.63;4.57;;;;;;;;;;4993757;28;20423;-50
2023/06/13 10:55:24;;;;;;;8.83;4.10;;;;;;;;;;4992306;28;20452;-48
2023/06/13 10:57:51;;;;;;;5.93;4.73;;;;;;;;;;4992926;28;20431;-50
2023/06/13 11:00:28;;;;;;;4.57;4.17;;;;;;;;;;4993467;28;20939;-48
2023/06/13 11:02:57;;;;;;;4.93;4.53;;;;;;;;;;4991583;28;20456;-48
2023/06/13 11:05:23;;;;;;;5.43;4.40;;;;;;;;;;4992228;28;20869;-49
2023/06/13 11:07:49;;;;;;;4.97;4.50;;;;;;;;;;4992559;28;20428;-48
2023/06/13 11:10:16;;;;;;;5.23;4.40;;;;;;;;;;4997829;28;20414;-49
2023/06/13 11:12:43;;;;;;;4.60;4.20;;;;;;;;;;4988489;28;20947;-49
2023/06/13 11:15:22;;;;;;;5.70;4.93;;;;;;;;;;4992699;28;20436;-49
2023/06/13 11:18:07;;;;;;;6.60;4.63;;;;;;;;;;4993148;28;20415;-48
2023/06/13 11:20:33;;;;;;;7.03;4.20;;;;;;;;;;5001058;28;20514;-49
2023/06/13 11:22:59;;;;;;;4.67;4.23;;;;;;;;;;4995128;28;20475;-49
2023/06/13 11:25:25;;;;;;;4.67;4.30;;;;;;;;;;4992587;28;20502;-49
2023/06/13 11:27:51;;;;;;;5.47;4.83;;;;;;;;;;4999691;28;20412;-49
2023/06/13 11:30:20;;;;;;;4.90;4.40;;;;;;;;;;4992523;28;20419;-49
2023/06/13 11:32:47;;;;;;;4.37;4.07;;;;;;;;;;4990378;28;20923;-50
2023/06/13 11:35:16;;;;;;;5.30;4.80;;;;;;;;;;4992755;28;20431;-49
2023/06/13 11:37:46;;;;;;;4.67;4.30;;;;;;;;;;4991071;28;20420;-50
2023/06/13 11:40:15;;;;;;;4.40;4.00;;;;;;;;;;4989321;28;20833;-50
2023/06/13 11:42:41;;;;;;;9.60;4.60;;;;;;;;;;4983470;28;20491;-48
2023/06/13 11:45:07;;;;;;;4.87;4.40;;;;;;;;;;4985723;28;20944;-49
2023/06/13 11:47:33;;;;;;;5.07;4.70;;;;;;;;;;4989852;28;20420;-49
2023/06/13 11:49:59;;;;;;;7.10;4.50;;;;;;;;;;4990594;28;20410;-49
2023/06/13 11:52:25;;;;;;;4.60;4.20;;;;;;;;;;4991636;28;20430;-49
2023/06/13 11:54:52;;;;;;;4.63;3.60;;;;;;;;;;4991530;28;20471;-49
2023/06/13 11:57:18;;;;;;;5.80;4.90;;;;;;;;;;4991838;28;20416;-49
2023/06/13 11:59:44;;;;;;;4.83;4.40;;;;;;;;;;4991497;28;20790;-49
2023/06/13 12:02:13;;;;;;;5.43;4.00;;;;;;;;;;4990552;28;20428;-49
2023/06/13 12:04:42;;;;;;;7.30;4.57;;;;;;;;;;4980056;28;20452;-51
2023/06/13 12:07:08;;;;;;;5.17;4.60;;;;;;;;;;4989150;28;20931;-49
2023/06/13 12:09:34;;;;;;;3.83;3.60;;;;;;;;;;4991341;28;20425;-50
2023/06/13 12:12:00;;;;;;;5.03;4.07;;;;;;;;;;4991996;28;20493;-49
2023/06/13 12:14:28;;;;;;;17.90;4.30;;;;;;;;;;4992391;28;20464;-50
2023/06/13 12:16:55;;;;;;;4.10;3.80;;;;;;;;;;4992298;28;20404;-49
2023/06/13 12:19:22;;;;;;;5.90;3.50;;;;;;;;;;4992518;28;20408;-50
2023/06/13 12:21:50;;;;;;;5.33;4.83;;;;;;;;;;4992283;28;20775;-49
2023/06/13 12:24:16;;;;;;;5.43;4.10;;;;;;;;;;4992223;28;20486;-49
2023/06/13 12:26:44;;;;;;;5.43;3.90;;;;;;;;;;4993012;28;20400;-50
2023/06/13 12:29:16;;;;;;;4.73;4.23;;;;;;;;;;4990263;28;20427;-49
2023/06/13 12:31:47;;;;;;;6.83;4.30;;;;;;;;;;4992263;28;20423;-49
2023/06/13 12:34:29;;;;;;;3.80;3.57;;;;;;;;;;4990913;28;20539;-50
2023/06/13 12:37:04;;;;;;;4.80;4.40;;;;;;;;;;4992185;28;20443;-49
2023/06/13 12:39:34;;;;;;;4.30;3.93;;;;;;;;;;4991973;28;20415;-49
2023/06/13 12:42:02;;;;;;;4.60;3.83;;;;;;;;;;4993953;28;20942;-50
2023/06/13 12:44:30;;;;;;;4.90;4.07;;;;;;;;;;4996039;28;20463;-50
2023/06/13 12:46:58;;;;;;;5.13;4.30;;;;;;;;;;4996107;28;20418;-50
2023/06/13 12:49:24;;;;;;;4.40;4.10;;;;;;;;;;4995938;28;20454;-50
2023/06/13 12:51:54;;;;;;;5.30;4.80;;;;;;;;;;4996055;28;20411;-50
2023/06/13 12:54:23;;;;;;;4.27;3.97;;;;;;;;;;4995765;28;20438;-50
2023/06/13 12:56:54;;;;;;;6.50;5.10;;;;;;;;;;4995893;28;20416;-49
2023/06/13 12:59:40;;;;;;;4.73;4.43;;;;;;;;;;4994511;28;20455;-49
2023/06/13 13:02:07;;;;;;;4.67;4.23;;;;;;;;;;4994901;28;20416;-51
2023/06/13 13:04:34;;;;;;;5.37;4.10;;;;;;;;;;4996013;28;20447;-50
2023/06/13 13:07:00;;;;;;;4.20;3.90;;;;;;;;;;5006236;28;20754;-50
2023/06/13 13:09:27;;;;;;;5.77;3.80;;;;;;;;;;5003145;28;20422;-50
2023/06/13 13:11:56;;;;;;;4.20;3.83;;;;;;;;;;5002859;28;20407;-50
2023/06/13 13:14:23;;;;;;;4.03;3.80;;;;;;;;;;5003281;28;20839;-49
2023/06/13 13:16:49;;;;;;;6.63;4.80;;;;;;;;;;5002431;28;20423;-49
2023/06/13 13:19:15;;;;;;;4.30;3.90;;;;;;;;;;4988700;28;20419;-50
2023/06/13 13:21:41;;;;;;;4.00;3.80;;;;;;;;;;4995254;28;20855;-50
2023/06/13 13:24:07;;;;;;;4.93;3.83;;;;;;;;;;4995153;28;20471;-51
2023/06/13 13:26:33;;;;;;;3.90;3.30;;;;;;;;;;4995313;28;20415;-50
2023/06/13 13:28:59;;;;;;;4.00;3.70;;;;;;;;;;5001191;28;20227;-50
2023/06/13 13:31:25;;;;;;;4.13;3.70;;;;;;;;;;5005623;28;20462;-50
2023/06/13 13:33:51;;;;;;;4.63;3.87;;;;;;;;;;5004521;28;20966;-50
2023/06/13 13:36:17;;;;;;;5.43;4.43;;;;;;;;;;5005892;28;20424;-50
2023/06/13 13:38:43;;;;;;;5.50;4.20;;;;;;;;;;5006107;28;20411;-50
2023/06/13 13:41:09;;;;;;;4.07;3.77;;;;;;;;;;4999981;28;20233;-50
2023/06/13 13:43:35;;;;;;;8.10;4.20;;;;;;;;;;5006300;28;20519;-50
2023/06/13 13:46:01;;;;;;;4.50;4.20;;;;;;;;;;5004387;28;20411;-51
2023/06/13 13:48:27;;;;;;;5.90;4.20;;;;;;;;;;5003598;28;20407;-49
2023/06/13 13:50:53;;;;;;;4.60;4.20;;;;;;;;;;5003833;28;20408;-51
2023/06/13 13:53:19;;;;;;;3.90;3.60;;;;;;;;;;5002829;28;20418;-50
2023/06/13 13:55:45;;;;;;;4.30;3.90;;;;;;;;;;5004032;28;20419;-50
2023/06/13 13:58:12;;;;;;;4.27;3.97;;;;;;;;;;5002558;28;20787;-50
2023/06/13 14:00:38;;;;;;;4.70;4.30;;;;;;;;;;5000621;28;20438;-50
2023/06/13 14:03:04;;;;;;;7.10;3.77;;;;;;;;;;5005730;28;20529;-49
2023/06/13 14:05:30;;;;;;;4.87;4.20;;;;;;;;;;5002051;28;20506;-50
2023/06/13 14:07:56;;;;;;;6.97;4.10;;;;;;;;;;5004009;28;20892;-51
2023/06/13 14:10:22;;;;;;;4.77;4.37;;;;;;;;;;5002602;28;20404;-50
2023/06/13 14:12:51;;;;;;;4.40;4.00;;;;;;;;;;5003860;28;20427;-51
2023/06/13 14:15:17;;;;;;;5.63;4.20;;;;;;;;;;5006925;28;20482;-50
2023/06/13 14:17:43;;;;;;;3.97;3.67;;;;;;;;;;5006883;28;20415;-51
2023/06/13 14:20:12;;;;;;;6.43;4.10;;;;;;;;;;5001565;28;20473;-50
2023/06/13 14:22:38;;;;;;;4.43;4.13;;;;;;;;;;4999198;28;20885;-50
2023/06/13 14:25:04;;;;;;;4.13;3.80;;;;;;;;;;5005439;28;20451;-51
2023/06/13 14:27:30;;;;;;;6.27;4.23;;;;;;;;;;5005221;28;20172;-51
2023/06/13 14:29:56;;;;;;;5.43;3.87;;;;;;;;;;5002484;28;20438;-50
2023/06/13 14:32:22;;;;;;;3.80;3.43;;;;;;;;;;5004154;28;20262;-50
2023/06/13 14:34:47;;;;;;;11.70;4.23;;;;;;;;;;5004996;28;20258;-50
2023/06/13 14:37:13;;;;;;;4.10;3.80;;;;;;;;;;5000164;28;20415;-50
2023/06/13 14:39:40;;;;;;;4.80;4.50;;;;;;;;;;5005191;28;20282;-50
2023/06/13 14:42:06;;;;;;;4.70;4.20;;;;;;;;;;5003935;28;20545;-50